sensor_id;sensor_type;location;lat;lon;timestamp;P1;durP1;ratioP1;P2;durP2;ratioP2
64515;SDS011;50891;37.380;-122.076;2022-08-05T00:02:11;8.82;;;3.67;;
64515;SDS011;50891;37.380;-122.076;2022-08-05T00:04:38;11.70;;;4.25;;
64515;SDS011;50891;37.380;-122.076;2022-08-05T00:07:04;9.55;;;4.28;;
64515;SDS011;50891;37.380;-122.076;2022-08-05T00:09:31;9.53;;;4.00;;
64515;SDS011;50891;37.380;-122.076;2022-08-05T00:11:57;12.07;;;4.15;;
64515;SDS011;50891;37.380;-122.076;2022-08-05T00:14:23;10.93;;;3.88;;
64515;SDS011;50891;37.380;-122.076;2022-08-05T00:16:49;8.70;;;3.80;;
64515;SDS011;50891;37.380;-122.076;2022-08-05T00:19:15;9.97;;;4.03;;
64515;SDS011;50891;37.380;-122.076;2022-08-05T00:21:42;7.63;;;3.80;;
64515;SDS011;50891;37.380;-122.076;2022-08-05T00:24:08;7.82;;;3.88;;
64515;SDS011;50891;37.380;-122.076;2022-08-05T00:26:34;10.85;;;4.03;;
64515;SDS011;50891;37.380;-122.076;2022-08-05T00:29:00;11.23;;;4.40;;
64515;SDS011;50891;37.380;-122.076;2022-08-05T00:31:27;11.23;;;4.03;;
64515;SDS011;50891;37.380;-122.076;2022-08-05T00:33:53;12.05;;;4.30;;
64515;SDS011;50891;37.380;-122.076;2022-08-05T00:36:19;10.33;;;3.80;;
64515;SDS011;50891;37.380;-122.076;2022-08-05T00:38:48;8.95;;;3.92;;
64515;SDS011;50891;37.380;-122.076;2022-08-05T00:41:25;9.43;;;3.90;;
64515;SDS011;50891;37.380;-122.076;2022-08-05T00:43:52;8.63;;;4.00;;
64515;SDS011;50891;37.380;-122.076;2022-08-05T00:46:18;10.07;;;4.28;;
64515;SDS011;50891;37.380;-122.076;2022-08-05T00:48:44;12.98;;;4.50;;
64515;SDS011;50891;37.380;-122.076;2022-08-05T00:51:11;10.80;;;4.40;;
64515;SDS011;50891;37.380;-122.076;2022-08-05T00:53:37;10.15;;;4.40;;
64515;SDS011;50891;37.380;-122.076;2022-08-05T00:56:03;11.38;;;4.00;;
64515;SDS011;50891;37.380;-122.076;2022-08-05T00:58:30;11.48;;;4.30;;
64515;SDS011;50891;37.380;-122.076;2022-08-05T01:00:57;9.60;;;3.80;;
64515;SDS011;50891;37.380;-122.076;2022-08-05T01:03:23;9.18;;;3.85;;
64515;SDS011;50891;37.380;-122.076;2022-08-05T01:05:50;12.55;;;4.30;;
64515;SDS011;50891;37.380;-122.076;2022-08-05T01:08:20;9.63;;;4.13;;
64515;SDS011;50891;37.380;-122.076;2022-08-05T01:10:54;10.73;;;4.20;;
64515;SDS011;50891;37.380;-122.076;2022-08-05T01:16:20;8.30;;;3.78;;
64515;SDS011;50891;37.380;-122.076;2022-08-05T01:19:05;9.70;;;4.10;;
64515;SDS011;50891;37.380;-122.076;2022-08-05T01:31:08;11.23;;;4.15;;
64515;SDS011;50891;37.380;-122.076;2022-08-05T01:33:42;9.32;;;4.03;;
64515;SDS011;50891;37.380;-122.076;2022-08-05T01:36:19;10.17;;;4.20;;
64515;SDS011;50891;37.380;-122.076;2022-08-05T01:38:50;11.77;;;4.30;;
64515;SDS011;50891;37.380;-122.076;2022-08-05T01:41:19;11.23;;;3.92;;
64515;SDS011;50891;37.380;-122.076;2022-08-05T01:43:47;9.07;;;4.00;;
64515;SDS011;50891;37.380;-122.076;2022-08-05T01:46:15;10.68;;;4.40;;
64515;SDS011;50891;37.380;-122.076;2022-08-05T01:48:43;10.82;;;4.20;;
64515;SDS011;50891;37.380;-122.076;2022-08-05T01:51:11;11.48;;;4.40;;
64515;SDS011;50891;37.380;-122.076;2022-08-05T01:53:39;10.82;;;4.20;;
64515;SDS011;50891;37.380;-122.076;2022-08-05T01:56:07;11.27;;;4.28;;
64515;SDS011;50891;37.380;-122.076;2022-08-05T01:58:35;9.90;;;4.13;;
64515;SDS011;50891;37.380;-122.076;2022-08-05T02:01:03;9.35;;;4.00;;
64515;SDS011;50891;37.380;-122.076;2022-08-05T02:03:41;11.38;;;4.18;;
64515;SDS011;50891;37.380;-122.076;2022-08-05T02:06:11;8.73;;;3.83;;
64515;SDS011;50891;37.380;-122.076;2022-08-05T02:08:37;9.93;;;4.18;;
64515;SDS011;50891;37.380;-122.076;2022-08-05T02:11:06;10.17;;;4.30;;
64515;SDS011;50891;37.380;-122.076;2022-08-05T02:16:45;8.98;;;3.72;;
64515;SDS011;50891;37.380;-122.076;2022-08-05T02:19:37;9.40;;;4.18;;
64515;SDS011;50891;37.380;-122.076;2022-08-05T02:22:18;9.20;;;4.00;;
64515;SDS011;50891;37.380;-122.076;2022-08-05T02:25:16;9.98;;;4.53;;
64515;SDS011;50891;37.380;-122.076;2022-08-05T02:27:44;10.90;;;4.33;;
64515;SDS011;50891;37.380;-122.076;2022-08-05T02:30:14;11.00;;;4.30;;
64515;SDS011;50891;37.380;-122.076;2022-08-05T02:32:42;10.27;;;4.25;;
64515;SDS011;50891;37.380;-122.076;2022-08-05T02:35:13;10.77;;;4.55;;
64515;SDS011;50891;37.380;-122.076;2022-08-05T02:37:45;12.15;;;4.80;;
64515;SDS011;50891;37.380;-122.076;2022-08-05T02:40:12;12.45;;;4.60;;
64515;SDS011;50891;37.380;-122.076;2022-08-05T02:42:41;11.57;;;4.47;;
64515;SDS011;50891;37.380;-122.076;2022-08-05T02:45:08;11.93;;;4.72;;
64515;SDS011;50891;37.380;-122.076;2022-08-05T02:47:35;12.50;;;4.53;;
64515;SDS011;50891;37.380;-122.076;2022-08-05T02:50:03;13.55;;;4.60;;
64515;SDS011;50891;37.380;-122.076;2022-08-05T02:52:30;14.40;;;4.80;;
64515;SDS011;50891;37.380;-122.076;2022-08-05T02:55:01;12.45;;;5.20;;
64515;SDS011;50891;37.380;-122.076;2022-08-05T02:57:30;11.45;;;4.70;;
64515;SDS011;50891;37.380;-122.076;2022-08-05T02:59:57;11.85;;;4.70;;
64515;SDS011;50891;37.380;-122.076;2022-08-05T03:02:25;10.32;;;4.43;;
64515;SDS011;50891;37.380;-122.076;2022-08-05T03:04:54;11.27;;;4.82;;
64515;SDS011;50891;37.380;-122.076;2022-08-05T03:07:22;12.70;;;4.90;;
64515;SDS011;50891;37.380;-122.076;2022-08-05T03:09:50;11.55;;;4.50;;
64515;SDS011;50891;37.380;-122.076;2022-08-05T03:12:32;12.15;;;4.65;;
64515;SDS011;50891;37.380;-122.076;2022-08-05T03:15:00;11.15;;;4.47;;
64515;SDS011;50891;37.380;-122.076;2022-08-05T03:17:27;11.32;;;4.78;;
64515;SDS011;50891;37.380;-122.076;2022-08-05T03:19:54;12.85;;;4.63;;
64515;SDS011;50891;37.380;-122.076;2022-08-05T03:22:20;13.05;;;4.60;;
64515;SDS011;50891;37.380;-122.076;2022-08-05T03:24:47;12.27;;;4.63;;
64515;SDS011;50891;37.380;-122.076;2022-08-05T03:27:14;11.85;;;4.60;;
64515;SDS011;50891;37.380;-122.076;2022-08-05T03:29:41;12.77;;;4.60;;
64515;SDS011;50891;37.380;-122.076;2022-08-05T03:32:07;11.13;;;4.70;;
64515;SDS011;50891;37.380;-122.076;2022-08-05T03:34:34;12.27;;;4.47;;
64515;SDS011;50891;37.380;-122.076;2022-08-05T03:37:01;9.15;;;4.43;;
64515;SDS011;50891;37.380;-122.076;2022-08-05T03:39:28;12.45;;;4.80;;
64515;SDS011;50891;37.380;-122.076;2022-08-05T03:41:55;13.38;;;4.60;;
64515;SDS011;50891;37.380;-122.076;2022-08-05T03:44:22;11.80;;;4.63;;
64515;SDS011;50891;37.380;-122.076;2022-08-05T03:46:49;12.52;;;4.72;;
64515;SDS011;50891;37.380;-122.076;2022-08-05T03:49:15;12.33;;;4.60;;
64515;SDS011;50891;37.380;-122.076;2022-08-05T03:51:49;10.73;;;4.75;;
64515;SDS011;50891;37.380;-122.076;2022-08-05T03:54:30;12.23;;;4.53;;
64515;SDS011;50891;37.380;-122.076;2022-08-05T03:57:04;11.55;;;4.70;;
64515;SDS011;50891;37.380;-122.076;2022-08-05T03:59:36;12.93;;;4.50;;
64515;SDS011;50891;37.380;-122.076;2022-08-05T04:02:08;11.88;;;4.50;;
64515;SDS011;50891;37.380;-122.076;2022-08-05T04:04:37;12.00;;;4.57;;
64515;SDS011;50891;37.380;-122.076;2022-08-05T04:07:05;11.93;;;4.40;;
64515;SDS011;50891;37.380;-122.076;2022-08-05T04:09:33;11.60;;;4.90;;
64515;SDS011;50891;37.380;-122.076;2022-08-05T04:12:00;9.80;;;4.40;;
64515;SDS011;50891;37.380;-122.076;2022-08-05T04:14:27;11.32;;;4.50;;
64515;SDS011;50891;37.380;-122.076;2022-08-05T04:16:53;9.98;;;4.72;;
64515;SDS011;50891;37.380;-122.076;2022-08-05T04:19:19;11.30;;;4.75;;
64515;SDS011;50891;37.380;-122.076;2022-08-05T04:21:46;11.70;;;4.82;;
64515;SDS011;50891;37.380;-122.076;2022-08-05T04:24:12;8.00;;;4.00;;
64515;SDS011;50891;37.380;-122.076;2022-08-05T04:26:38;11.65;;;4.90;;
64515;SDS011;50891;37.380;-122.076;2022-08-05T04:29:05;9.00;;;4.25;;
64515;SDS011;50891;37.380;-122.076;2022-08-05T04:31:31;12.48;;;4.45;;
64515;SDS011;50891;37.380;-122.076;2022-08-05T04:33:57;11.63;;;4.78;;
64515;SDS011;50891;37.380;-122.076;2022-08-05T04:36:24;10.77;;;4.55;;
64515;SDS011;50891;37.380;-122.076;2022-08-05T04:38:50;10.00;;;4.40;;
64515;SDS011;50891;37.380;-122.076;2022-08-05T04:41:18;11.13;;;4.40;;
64515;SDS011;50891;37.380;-122.076;2022-08-05T04:43:45;10.48;;;4.40;;
64515;SDS011;50891;37.380;-122.076;2022-08-05T04:46:11;11.43;;;4.78;;
64515;SDS011;50891;37.380;-122.076;2022-08-05T04:48:37;10.07;;;4.60;;
64515;SDS011;50891;37.380;-122.076;2022-08-05T04:51:03;11.07;;;4.63;;
64515;SDS011;50891;37.380;-122.076;2022-08-05T04:53:30;10.30;;;4.38;;
64515;SDS011;50891;37.380;-122.076;2022-08-05T04:55:56;10.50;;;4.30;;
64515;SDS011;50891;37.380;-122.076;2022-08-05T04:58:22;9.77;;;4.63;;
64515;SDS011;50891;37.380;-122.076;2022-08-05T05:00:48;10.63;;;4.35;;
64515;SDS011;50891;37.380;-122.076;2022-08-05T05:03:15;11.68;;;4.70;;
64515;SDS011;50891;37.380;-122.076;2022-08-05T05:05:41;10.93;;;4.65;;
64515;SDS011;50891;37.380;-122.076;2022-08-05T05:08:08;9.77;;;4.50;;
64515;SDS011;50891;37.380;-122.076;2022-08-05T05:10:39;11.47;;;4.63;;
64515;SDS011;50891;37.380;-122.076;2022-08-05T05:13:08;10.20;;;4.40;;
64515;SDS011;50891;37.380;-122.076;2022-08-05T05:15:35;10.15;;;4.50;;
64515;SDS011;50891;37.380;-122.076;2022-08-05T05:18:02;12.23;;;4.70;;
64515;SDS011;50891;37.380;-122.076;2022-08-05T05:20:28;11.00;;;4.50;;
64515;SDS011;50891;37.380;-122.076;2022-08-05T05:22:56;10.73;;;4.40;;
64515;SDS011;50891;37.380;-122.076;2022-08-05T05:25:23;11.38;;;4.60;;
64515;SDS011;50891;37.380;-122.076;2022-08-05T05:27:49;11.85;;;4.40;;
64515;SDS011;50891;37.380;-122.076;2022-08-05T05:30:18;8.88;;;4.28;;
64515;SDS011;50891;37.380;-122.076;2022-08-05T05:32:45;10.05;;;4.35;;
64515;SDS011;50891;37.380;-122.076;2022-08-05T05:35:11;10.35;;;4.47;;
64515;SDS011;50891;37.380;-122.076;2022-08-05T05:37:56;11.47;;;4.37;;
64515;SDS011;50891;37.380;-122.076;2022-08-05T05:40:24;8.90;;;4.18;;
64515;SDS011;50891;37.380;-122.076;2022-08-05T05:42:52;10.43;;;4.30;;
64515;SDS011;50891;37.380;-122.076;2022-08-05T05:45:18;10.55;;;4.55;;
64515;SDS011;50891;37.380;-122.076;2022-08-05T05:47:45;10.52;;;4.80;;
64515;SDS011;50891;37.380;-122.076;2022-08-05T05:50:13;11.30;;;4.60;;
64515;SDS011;50891;37.380;-122.076;2022-08-05T05:52:41;11.13;;;4.72;;
64515;SDS011;50891;37.380;-122.076;2022-08-05T05:55:09;10.98;;;4.65;;
64515;SDS011;50891;37.380;-122.076;2022-08-05T05:57:37;12.77;;;4.45;;
64515;SDS011;50891;37.380;-122.076;2022-08-05T06:00:05;10.45;;;4.38;;
64515;SDS011;50891;37.380;-122.076;2022-08-05T06:02:33;10.48;;;4.50;;
64515;SDS011;50891;37.380;-122.076;2022-08-05T06:05:00;13.05;;;4.90;;
64515;SDS011;50891;37.380;-122.076;2022-08-05T06:07:26;10.65;;;4.70;;
64515;SDS011;50891;37.380;-122.076;2022-08-05T06:09:52;11.70;;;4.75;;
64515;SDS011;50891;37.380;-122.076;2022-08-05T06:12:19;11.68;;;4.57;;
64515;SDS011;50891;37.380;-122.076;2022-08-05T06:14:45;9.57;;;4.43;;
64515;SDS011;50891;37.380;-122.076;2022-08-05T06:17:11;11.05;;;4.70;;
64515;SDS011;50891;37.380;-122.076;2022-08-05T06:19:37;9.48;;;4.50;;
64515;SDS011;50891;37.380;-122.076;2022-08-05T06:22:05;10.95;;;4.70;;
64515;SDS011;50891;37.380;-122.076;2022-08-05T06:24:33;11.88;;;4.57;;
64515;SDS011;50891;37.380;-122.076;2022-08-05T06:27:00;11.07;;;4.72;;
64515;SDS011;50891;37.380;-122.076;2022-08-05T06:29:26;10.93;;;4.53;;
64515;SDS011;50891;37.380;-122.076;2022-08-05T06:31:52;11.88;;;4.60;;
64515;SDS011;50891;37.380;-122.076;2022-08-05T06:34:19;11.80;;;4.47;;
64515;SDS011;50891;37.380;-122.076;2022-08-05T06:36:45;10.40;;;4.57;;
64515;SDS011;50891;37.380;-122.076;2022-08-05T06:39:11;11.90;;;4.63;;
64515;SDS011;50891;37.380;-122.076;2022-08-05T06:41:37;10.05;;;4.55;;
64515;SDS011;50891;37.380;-122.076;2022-08-05T06:44:03;12.68;;;4.57;;
64515;SDS011;50891;37.380;-122.076;2022-08-05T06:46:30;9.82;;;4.55;;
64515;SDS011;50891;37.380;-122.076;2022-08-05T06:48:56;11.77;;;4.68;;
64515;SDS011;50891;37.380;-122.076;2022-08-05T06:51:24;10.40;;;4.50;;
64515;SDS011;50891;37.380;-122.076;2022-08-05T06:53:50;11.80;;;4.65;;
64515;SDS011;50891;37.380;-122.076;2022-08-05T06:56:16;10.30;;;4.60;;
64515;SDS011;50891;37.380;-122.076;2022-08-05T06:58:44;9.25;;;4.55;;
64515;SDS011;50891;37.380;-122.076;2022-08-05T07:01:10;9.90;;;4.40;;
64515;SDS011;50891;37.380;-122.076;2022-08-05T07:03:36;10.43;;;4.47;;
64515;SDS011;50891;37.380;-122.076;2022-08-05T07:06:02;9.75;;;4.28;;
64515;SDS011;50891;37.380;-122.076;2022-08-05T07:08:29;10.05;;;4.50;;
64515;SDS011;50891;37.380;-122.076;2022-08-05T07:10:55;11.80;;;4.75;;
64515;SDS011;50891;37.380;-122.076;2022-08-05T07:13:22;11.60;;;4.85;;
64515;SDS011;50891;37.380;-122.076;2022-08-05T07:16:06;11.20;;;4.63;;
64515;SDS011;50891;37.380;-122.076;2022-08-05T07:18:51;11.60;;;4.68;;
64515;SDS011;50891;37.380;-122.076;2022-08-05T07:21:21;11.43;;;4.68;;
64515;SDS011;50891;37.380;-122.076;2022-08-05T07:23:47;10.95;;;4.45;;
64515;SDS011;50891;37.380;-122.076;2022-08-05T07:26:13;10.38;;;4.55;;
64515;SDS011;50891;37.380;-122.076;2022-08-05T07:28:40;10.27;;;4.50;;
64515;SDS011;50891;37.380;-122.076;2022-08-05T07:31:06;11.45;;;4.68;;
64515;SDS011;50891;37.380;-122.076;2022-08-05T07:33:32;11.30;;;4.60;;
64515;SDS011;50891;37.380;-122.076;2022-08-05T07:35:59;11.80;;;4.70;;
64515;SDS011;50891;37.380;-122.076;2022-08-05T07:38:26;11.80;;;5.00;;
64515;SDS011;50891;37.380;-122.076;2022-08-05T07:40:52;11.02;;;4.57;;
64515;SDS011;50891;37.380;-122.076;2022-08-05T07:43:18;11.00;;;4.68;;
64515;SDS011;50891;37.380;-122.076;2022-08-05T07:45:45;13.00;;;4.90;;
64515;SDS011;50891;37.380;-122.076;2022-08-05T07:48:11;11.40;;;4.55;;
64515;SDS011;50891;37.380;-122.076;2022-08-05T07:50:37;12.98;;;5.00;;
64515;SDS011;50891;37.380;-122.076;2022-08-05T07:53:03;10.53;;;4.80;;
64515;SDS011;50891;37.380;-122.076;2022-08-05T07:55:30;11.05;;;4.38;;
64515;SDS011;50891;37.380;-122.076;2022-08-05T07:57:56;8.93;;;4.38;;
64515;SDS011;50891;37.380;-122.076;2022-08-05T08:00:22;12.73;;;4.72;;
64515;SDS011;50891;37.380;-122.076;2022-08-05T08:02:50;10.75;;;4.65;;
64515;SDS011;50891;37.380;-122.076;2022-08-05T08:05:16;10.05;;;4.70;;
64515;SDS011;50891;37.380;-122.076;2022-08-05T08:07:42;10.38;;;4.50;;
64515;SDS011;50891;37.380;-122.076;2022-08-05T08:10:09;12.20;;;4.65;;
64515;SDS011;50891;37.380;-122.076;2022-08-05T08:12:35;13.05;;;4.85;;
64515;SDS011;50891;37.380;-122.076;2022-08-05T08:15:01;11.55;;;4.60;;
64515;SDS011;50891;37.380;-122.076;2022-08-05T08:17:28;10.37;;;4.67;;
64515;SDS011;50891;37.380;-122.076;2022-08-05T08:19:55;12.67;;;4.70;;
64515;SDS011;50891;37.380;-122.076;2022-08-05T08:22:24;9.32;;;4.57;;
64515;SDS011;50891;37.380;-122.076;2022-08-05T08:24:51;10.50;;;4.70;;
64515;SDS011;50891;37.380;-122.076;2022-08-05T08:27:18;10.40;;;4.80;;
64515;SDS011;50891;37.380;-122.076;2022-08-05T08:29:44;11.13;;;4.70;;
64515;SDS011;50891;37.380;-122.076;2022-08-05T08:32:10;11.68;;;4.88;;
64515;SDS011;50891;37.380;-122.076;2022-08-05T08:34:37;10.75;;;4.60;;
64515;SDS011;50891;37.380;-122.076;2022-08-05T08:37:03;13.43;;;5.25;;
64515;SDS011;50891;37.380;-122.076;2022-08-05T08:39:29;10.65;;;4.70;;
64515;SDS011;50891;37.380;-122.076;2022-08-05T08:41:55;11.57;;;4.60;;
64515;SDS011;50891;37.380;-122.076;2022-08-05T08:44:24;10.55;;;4.70;;
64515;SDS011;50891;37.380;-122.076;2022-08-05T08:46:55;11.57;;;4.70;;
64515;SDS011;50891;37.380;-122.076;2022-08-05T08:49:22;15.45;;;5.03;;
64515;SDS011;50891;37.380;-122.076;2022-08-05T08:51:53;11.57;;;4.78;;
64515;SDS011;50891;37.380;-122.076;2022-08-05T08:54:25;13.35;;;4.88;;
64515;SDS011;50891;37.380;-122.076;2022-08-05T08:56:52;10.82;;;4.70;;
64515;SDS011;50891;37.380;-122.076;2022-08-05T08:59:18;10.05;;;4.85;;
64515;SDS011;50891;37.380;-122.076;2022-08-05T09:01:45;11.13;;;5.00;;
64515;SDS011;50891;37.380;-122.076;2022-08-05T09:04:12;13.02;;;5.13;;
64515;SDS011;50891;37.380;-122.076;2022-08-05T09:06:38;9.90;;;4.63;;
64515;SDS011;50891;37.380;-122.076;2022-08-05T09:09:04;10.90;;;5.13;;
64515;SDS011;50891;37.380;-122.076;2022-08-05T09:11:34;11.73;;;4.80;;
64515;SDS011;50891;37.380;-122.076;2022-08-05T09:14:01;11.50;;;4.80;;
64515;SDS011;50891;37.380;-122.076;2022-08-05T09:16:28;11.48;;;5.00;;
64515;SDS011;50891;37.380;-122.076;2022-08-05T09:18:55;10.60;;;4.80;;
64515;SDS011;50891;37.380;-122.076;2022-08-05T09:21:21;12.57;;;4.88;;
64515;SDS011;50891;37.380;-122.076;2022-08-05T09:24:00;11.55;;;4.85;;
64515;SDS011;50891;37.380;-122.076;2022-08-05T09:26:29;11.35;;;4.95;;
64515;SDS011;50891;37.380;-122.076;2022-08-05T09:28:58;11.07;;;5.00;;
64515;SDS011;50891;37.380;-122.076;2022-08-05T09:31:29;11.75;;;5.20;;
64515;SDS011;50891;37.380;-122.076;2022-08-05T09:33:57;12.02;;;4.80;;
64515;SDS011;50891;37.380;-122.076;2022-08-05T09:36:41;11.60;;;4.90;;
64515;SDS011;50891;37.380;-122.076;2022-08-05T09:39:12;13.10;;;5.13;;
64515;SDS011;50891;37.380;-122.076;2022-08-05T09:44:39;12.10;;;5.22;;
64515;SDS011;50891;37.380;-122.076;2022-08-05T09:49:47;9.70;;;4.72;;
64515;SDS011;50891;37.380;-122.076;2022-08-05T09:57:29;11.90;;;4.97;;
64515;SDS011;50891;37.380;-122.076;2022-08-05T10:00:09;11.05;;;4.78;;
64515;SDS011;50891;37.380;-122.076;2022-08-05T10:02:38;10.82;;;4.70;;
64515;SDS011;50891;37.380;-122.076;2022-08-05T10:05:16;9.52;;;4.82;;
64515;SDS011;50891;37.380;-122.076;2022-08-05T10:10:23;10.85;;;4.60;;
64515;SDS011;50891;37.380;-122.076;2022-08-05T10:12:57;11.20;;;4.82;;
64515;SDS011;50891;37.380;-122.076;2022-08-05T10:15:30;11.43;;;4.88;;
64515;SDS011;50891;37.380;-122.076;2022-08-05T10:20:37;12.27;;;4.90;;
64515;SDS011;50891;37.380;-122.076;2022-08-05T10:23:36;10.63;;;4.93;;
64515;SDS011;50891;37.380;-122.076;2022-08-05T10:26:04;10.25;;;4.70;;
64515;SDS011;50891;37.380;-122.076;2022-08-05T10:28:32;11.73;;;5.03;;
64515;SDS011;50891;37.380;-122.076;2022-08-05T10:30:59;10.98;;;4.95;;
64515;SDS011;50891;37.380;-122.076;2022-08-05T10:33:26;10.75;;;4.80;;
64515;SDS011;50891;37.380;-122.076;2022-08-05T10:35:56;11.77;;;5.28;;
64515;SDS011;50891;37.380;-122.076;2022-08-05T10:38:24;11.10;;;4.50;;
64515;SDS011;50891;37.380;-122.076;2022-08-05T10:41:08;9.98;;;4.55;;
64515;SDS011;50891;37.380;-122.076;2022-08-05T10:46:54;9.40;;;4.50;;
64515;SDS011;50891;37.380;-122.076;2022-08-05T10:49:22;9.33;;;4.40;;
64515;SDS011;50891;37.380;-122.076;2022-08-05T10:51:51;8.68;;;4.30;;
64515;SDS011;50891;37.380;-122.076;2022-08-05T10:54:48;9.82;;;4.60;;
64515;SDS011;50891;37.380;-122.076;2022-08-05T10:57:26;7.10;;;4.05;;
64515;SDS011;50891;37.380;-122.076;2022-08-05T11:03:15;8.20;;;4.10;;
64515;SDS011;50891;37.380;-122.076;2022-08-05T11:05:36;8.90;;;4.10;;
64515;SDS011;50891;37.380;-122.076;2022-08-05T11:08:05;9.25;;;4.13;;
64515;SDS011;50891;37.380;-122.076;2022-08-05T11:10:33;10.27;;;4.22;;
64515;SDS011;50891;37.380;-122.076;2022-08-05T11:13:06;9.50;;;4.10;;
64515;SDS011;50891;37.380;-122.076;2022-08-05T11:15:34;8.57;;;3.95;;
64515;SDS011;50891;37.380;-122.076;2022-08-05T11:18:07;9.05;;;4.10;;
64515;SDS011;50891;37.380;-122.076;2022-08-05T11:20:49;8.07;;;3.70;;
64515;SDS011;50891;37.380;-122.076;2022-08-05T11:26:05;9.07;;;4.07;;
64515;SDS011;50891;37.380;-122.076;2022-08-05T11:28:41;7.18;;;3.83;;
64515;SDS011;50891;37.380;-122.076;2022-08-05T11:34:09;8.20;;;3.80;;
64515;SDS011;50891;37.380;-122.076;2022-08-05T11:36:40;7.80;;;3.80;;
64515;SDS011;50891;37.380;-122.076;2022-08-05T11:39:16;7.73;;;4.00;;
64515;SDS011;50891;37.380;-122.076;2022-08-05T11:42:02;9.27;;;4.00;;
64515;SDS011;50891;37.380;-122.076;2022-08-05T11:44:36;8.80;;;3.90;;
64515;SDS011;50891;37.380;-122.076;2022-08-05T11:47:03;8.33;;;4.17;;
64515;SDS011;50891;37.380;-122.076;2022-08-05T11:49:30;7.38;;;3.95;;
64515;SDS011;50891;37.380;-122.076;2022-08-05T11:51:56;7.85;;;3.70;;
64515;SDS011;50891;37.380;-122.076;2022-08-05T11:54:27;7.85;;;3.85;;
64515;SDS011;50891;37.380;-122.076;2022-08-05T11:56:57;7.50;;;3.60;;
64515;SDS011;50891;37.380;-122.076;2022-08-05T11:59:28;8.40;;;4.00;;
64515;SDS011;50891;37.380;-122.076;2022-08-05T12:01:56;7.88;;;3.78;;
64515;SDS011;50891;37.380;-122.076;2022-08-05T12:04:37;9.00;;;4.10;;
64515;SDS011;50891;37.380;-122.076;2022-08-05T12:07:07;9.13;;;3.95;;
64515;SDS011;50891;37.380;-122.076;2022-08-05T12:09:38;8.33;;;3.70;;
64515;SDS011;50891;37.380;-122.076;2022-08-05T12:12:06;7.00;;;3.50;;
64515;SDS011;50891;37.380;-122.076;2022-08-05T12:14:37;6.57;;;3.70;;
64515;SDS011;50891;37.380;-122.076;2022-08-05T12:17:12;8.55;;;3.95;;
64515;SDS011;50891;37.380;-122.076;2022-08-05T12:20:00;7.75;;;3.80;;
64515;SDS011;50891;37.380;-122.076;2022-08-05T12:22:27;8.05;;;3.90;;
64515;SDS011;50891;37.380;-122.076;2022-08-05T12:24:56;6.90;;;3.40;;
64515;SDS011;50891;37.380;-122.076;2022-08-05T12:27:23;7.97;;;3.92;;
64515;SDS011;50891;37.380;-122.076;2022-08-05T12:30:24;9.27;;;3.83;;
64515;SDS011;50891;37.380;-122.076;2022-08-05T12:32:45;8.32;;;3.85;;
64515;SDS011;50891;37.380;-122.076;2022-08-05T12:35:20;7.23;;;3.80;;
64515;SDS011;50891;37.380;-122.076;2022-08-05T12:37:48;6.05;;;3.50;;
64515;SDS011;50891;37.380;-122.076;2022-08-05T12:40:15;8.52;;;3.97;;
64515;SDS011;50891;37.380;-122.076;2022-08-05T12:42:41;7.87;;;3.87;;
64515;SDS011;50891;37.380;-122.076;2022-08-05T12:45:08;6.65;;;3.80;;
64515;SDS011;50891;37.380;-122.076;2022-08-05T12:47:35;7.78;;;3.92;;
64515;SDS011;50891;37.380;-122.076;2022-08-05T12:50:12;7.78;;;3.90;;
64515;SDS011;50891;37.380;-122.076;2022-08-05T12:52:39;7.95;;;3.90;;
64515;SDS011;50891;37.380;-122.076;2022-08-05T12:55:16;9.13;;;3.93;;
64515;SDS011;50891;37.380;-122.076;2022-08-05T12:57:43;8.40;;;3.88;;
64515;SDS011;50891;37.380;-122.076;2022-08-05T13:00:18;7.35;;;3.63;;
64515;SDS011;50891;37.380;-122.076;2022-08-05T13:02:45;6.90;;;3.70;;
64515;SDS011;50891;37.380;-122.076;2022-08-05T13:05:12;8.98;;;4.07;;
64515;SDS011;50891;37.380;-122.076;2022-08-05T13:07:39;7.82;;;3.85;;
64515;SDS011;50891;37.380;-122.076;2022-08-05T13:10:10;8.30;;;3.90;;
64515;SDS011;50891;37.380;-122.076;2022-08-05T13:12:41;7.03;;;3.83;;
64515;SDS011;50891;37.380;-122.076;2022-08-05T13:15:08;7.70;;;3.75;;
64515;SDS011;50891;37.380;-122.076;2022-08-05T13:17:36;6.47;;;3.60;;
64515;SDS011;50891;37.380;-122.076;2022-08-05T13:20:07;7.18;;;3.78;;
64515;SDS011;50891;37.380;-122.076;2022-08-05T13:22:36;8.80;;;4.00;;
64515;SDS011;50891;37.380;-122.076;2022-08-05T13:25:07;7.82;;;3.80;;
64515;SDS011;50891;37.380;-122.076;2022-08-05T13:27:56;7.75;;;3.72;;
64515;SDS011;50891;37.380;-122.076;2022-08-05T13:30:23;7.13;;;3.63;;
64515;SDS011;50891;37.380;-122.076;2022-08-05T13:32:50;9.55;;;3.70;;
64515;SDS011;50891;37.380;-122.076;2022-08-05T13:35:17;7.47;;;3.90;;
64515;SDS011;50891;37.380;-122.076;2022-08-05T13:37:45;7.18;;;3.85;;
64515;SDS011;50891;37.380;-122.076;2022-08-05T13:40:11;9.05;;;4.20;;
64515;SDS011;50891;37.380;-122.076;2022-08-05T13:42:38;10.40;;;3.92;;
64515;SDS011;50891;37.380;-122.076;2022-08-05T13:45:04;7.05;;;3.80;;
64515;SDS011;50891;37.380;-122.076;2022-08-05T13:47:32;7.67;;;3.70;;
64515;SDS011;50891;37.380;-122.076;2022-08-05T13:50:03;8.70;;;3.97;;
64515;SDS011;50891;37.380;-122.076;2022-08-05T13:52:30;7.35;;;4.00;;
64515;SDS011;50891;37.380;-122.076;2022-08-05T13:54:57;8.73;;;4.30;;
64515;SDS011;50891;37.380;-122.076;2022-08-05T13:57:24;8.38;;;3.90;;
64515;SDS011;50891;37.380;-122.076;2022-08-05T13:59:50;7.53;;;3.90;;
64515;SDS011;50891;37.380;-122.076;2022-08-05T14:02:16;8.85;;;3.80;;
64515;SDS011;50891;37.380;-122.076;2022-08-05T14:04:44;7.25;;;3.88;;
64515;SDS011;50891;37.380;-122.076;2022-08-05T14:07:33;10.55;;;3.92;;
64515;SDS011;50891;37.380;-122.076;2022-08-05T14:10:08;9.60;;;4.00;;
64515;SDS011;50891;37.380;-122.076;2022-08-05T14:12:39;8.15;;;3.92;;
64515;SDS011;50891;37.380;-122.076;2022-08-05T14:15:06;9.07;;;4.20;;
64515;SDS011;50891;37.380;-122.076;2022-08-05T14:17:33;8.40;;;4.22;;
64515;SDS011;50891;37.380;-122.076;2022-08-05T14:20:00;8.73;;;4.00;;
64515;SDS011;50891;37.380;-122.076;2022-08-05T14:22:26;9.35;;;4.20;;
64515;SDS011;50891;37.380;-122.076;2022-08-05T14:24:52;9.63;;;4.20;;
64515;SDS011;50891;37.380;-122.076;2022-08-05T14:27:18;8.35;;;4.20;;
64515;SDS011;50891;37.380;-122.076;2022-08-05T14:29:44;8.23;;;4.30;;
64515;SDS011;50891;37.380;-122.076;2022-08-05T14:32:11;9.52;;;4.53;;
64515;SDS011;50891;37.380;-122.076;2022-08-05T14:34:37;9.05;;;4.20;;
64515;SDS011;50891;37.380;-122.076;2022-08-05T14:37:03;9.60;;;4.47;;
64515;SDS011;50891;37.380;-122.076;2022-08-05T14:39:30;9.70;;;4.27;;
64515;SDS011;50891;37.380;-122.076;2022-08-05T14:41:57;11.70;;;4.60;;
64515;SDS011;50891;37.380;-122.076;2022-08-05T14:44:23;9.87;;;4.43;;
64515;SDS011;50891;37.380;-122.076;2022-08-05T14:46:49;8.80;;;4.43;;
64515;SDS011;50891;37.380;-122.076;2022-08-05T14:49:16;9.98;;;4.22;;
64515;SDS011;50891;37.380;-122.076;2022-08-05T14:51:42;10.30;;;4.30;;
64515;SDS011;50891;37.380;-122.076;2022-08-05T14:54:09;9.13;;;4.18;;
64515;SDS011;50891;37.380;-122.076;2022-08-05T14:56:36;7.40;;;4.07;;